This is the latest recevied weather packets stored in our database for station/object N7CW. If no packets are shown the sender has not sent any weather packets the latest 10 day(s).
| Time | Temp. | Humidity | Pressure | Rain* | Wind** | Luminosity | Snow |
|---|---|---|---|---|---|---|---|
| 1777978536 | 5.56° C | 68% | 1012.6 hPa | 0 mm | - | 0 W/m² | - |
| 1777978231 | 6.11° C | 67% | 1012.4 hPa | 0 mm | - | 0 W/m² | - |
| 1777977929 | 6.11° C | 67% | 1012.5 hPa | 0 mm | - | 0 W/m² | - |
| 1777977626 | 5.56° C | 68% | 1012.8 hPa | 0 mm | - | 0 W/m² | - |
| 1777977323 | 6.11° C | 67% | 1012.8 hPa | 0 mm | - | 0 W/m² | - |
| 1777977021 | 6.67° C | 67% | 1012.9 hPa | 0 mm | - | 0 W/m² | - |
| 1777976718 | 6.11° C | 67% | 1012.8 hPa | 0 mm | - | 0 W/m² | - |
| 1777976415 | 6.11° C | 66% | 1013.1 hPa | 0 mm | - | 0 W/m² | - |
| 1777976114 | 6.11° C | 68% | 1013.1 hPa | 0 mm | - | 0 W/m² | - |
| 1777975809 | 6.67° C | 65% | 1012.8 hPa | 0 mm | - | 0 W/m² | - |
| 1777975507 | 6.67° C | 65% | 1013.1 hPa | 0 mm | - | 0 W/m² | - |
| 1777975203 | 6.11° C | 67% | 1013.2 hPa | 0 mm | - | 0 W/m² | - |
| 1777974899 | 5.56° C | 67% | 1013.1 hPa | 0 mm | - | 0 W/m² | - |
| 1777974595 | 5.56° C | 68% | 1013.1 hPa | 0 mm | - | 0 W/m² | - |
| 1777974293 | 6.11° C | 65% | 1013.2 hPa | 0 mm | - | 0 W/m² | - |
| 1777973989 | 6.11° C | 66% | 1013.2 hPa | 0 mm | - | 0 W/m² | - |
| 1777973685 | 6.67° C | 64% | 1013.3 hPa | 0 mm | - | 0 W/m² | - |
| 1777973383 | 6.67° C | 64% | 1013.4 hPa | 0 mm | - | 0 W/m² | - |
| 1777973080 | 7.22° C | 63% | 1013.4 hPa | 0 mm | - | 0 W/m² | - |
| 1777972778 | 7.22° C | 63% | 1013.3 hPa | 0 mm | - | 0 W/m² | - |
| 1777972475 | 7.78° C | 61% | 1013.5 hPa | 0 mm | - | 0 W/m² | - |
| 1777972173 | 7.78° C | 61% | 1013.5 hPa | 0 mm | - | 0 W/m² | - |
| 1777971871 | 7.78° C | 60% | 1013.6 hPa | 0 mm | - | 0 W/m² | - |
| 1777971568 | 7.78° C | 60% | 1013.8 hPa | 0 mm | - | 0 W/m² | - |
| 1777971266 | 7.78° C | 60% | 1013.9 hPa | 0 mm | - | 0 W/m² | - |
* Rain latest hour (hover to see other rain measurements)
** Current wind speed in m/s (hover to see current wind gust speed)